sensor_id;sensor_type;location;lat;lon;timestamp;pressure;altitude;pressure_sealevel;temperature;humidity
59289;BME280;45056;47.602;9.886;2022-12-07T00:01:45;92778.41;;;2.23;70.09
59289;BME280;45056;47.602;9.886;2022-12-07T00:04:17;92780.72;;;2.25;70.20
59289;BME280;45056;47.602;9.886;2022-12-07T00:06:51;92778.41;;;2.27;70.07
59289;BME280;45056;47.602;9.886;2022-12-07T00:09:21;92771.16;;;2.24;70.05
59289;BME280;45056;47.602;9.886;2022-12-07T00:11:51;92771.50;;;2.26;70.06
59289;BME280;45056;47.602;9.886;2022-12-07T00:14:20;92767.69;;;2.27;70.20
59289;BME280;45056;47.602;9.886;2022-12-07T00:16:50;92763.84;;;2.28;70.23
59289;BME280;45056;47.602;9.886;2022-12-07T00:19:19;92761.16;;;2.28;70.34
59289;BME280;45056;47.602;9.886;2022-12-07T00:21:49;92759.22;;;2.28;70.46
59289;BME280;45056;47.602;9.886;2022-12-07T00:24:17;92766.88;;;2.30;70.22
59289;BME280;45056;47.602;9.886;2022-12-07T00:26:45;92769.94;;;2.32;70.16
59289;BME280;45056;47.602;9.886;2022-12-07T00:29:16;92764.56;;;2.32;69.96
59289;BME280;45056;47.602;9.886;2022-12-07T00:31:47;92767.25;;;2.32;70.11
59289;BME280;45056;47.602;9.886;2022-12-07T00:34:18;92765.31;;;2.33;70.38
59289;BME280;45056;47.602;9.886;2022-12-07T00:36:49;92755.72;;;2.35;69.93
59289;BME280;45056;47.602;9.886;2022-12-07T00:39:18;92758.78;;;2.37;69.62
59289;BME280;45056;47.602;9.886;2022-12-07T00:41:46;92763.00;;;2.38;69.96
59289;BME280;45056;47.602;9.886;2022-12-07T00:44:14;92756.09;;;2.41;70.04
59289;BME280;45056;47.602;9.886;2022-12-07T00:46:42;92751.47;;;2.41;69.80
59289;BME280;45056;47.602;9.886;2022-12-07T00:49:11;92753.78;;;2.43;69.63
59289;BME280;45056;47.602;9.886;2022-12-07T00:51:39;92753.41;;;2.41;69.72
59289;BME280;45056;47.602;9.886;2022-12-07T00:54:09;92751.88;;;2.40;69.71
59289;BME280;45056;47.602;9.886;2022-12-07T00:56:37;92748.41;;;2.39;69.42
59289;BME280;45056;47.602;9.886;2022-12-07T00:59:06;92756.09;;;2.37;69.53
59289;BME280;45056;47.602;9.886;2022-12-07T01:01:36;92755.72;;;2.35;69.63
59289;BME280;45056;47.602;9.886;2022-12-07T01:04:05;92754.19;;;2.34;69.34
59289;BME280;45056;47.602;9.886;2022-12-07T01:06:33;92753.03;;;2.35;69.54
59289;BME280;45056;47.602;9.886;2022-12-07T01:09:02;92754.56;;;2.36;69.49
59289;BME280;45056;47.602;9.886;2022-12-07T01:11:33;92758.78;;;2.37;69.36
59289;BME280;45056;47.602;9.886;2022-12-07T01:14:02;92762.63;;;2.40;69.23
59289;BME280;45056;47.602;9.886;2022-12-07T01:16:32;92771.78;;;2.42;69.28
59289;BME280;45056;47.602;9.886;2022-12-07T01:19:01;92771.00;;;2.45;69.33
59289;BME280;45056;47.602;9.886;2022-12-07T01:21:33;92772.16;;;2.48;69.01
59289;BME280;45056;47.602;9.886;2022-12-07T01:24:07;92775.97;;;2.51;69.05
59289;BME280;45056;47.602;9.886;2022-12-07T01:26:39;92775.56;;;2.52;68.90
59289;BME280;45056;47.602;9.886;2022-12-07T01:29:07;92772.09;;;2.55;68.99
59289;BME280;45056;47.602;9.886;2022-12-07T01:31:35;92780.13;;;2.59;68.96
59289;BME280;45056;47.602;9.886;2022-12-07T01:34:04;92777.81;;;2.61;68.86
59289;BME280;45056;47.602;9.886;2022-12-07T01:36:34;92783.56;;;2.63;68.80
59289;BME280;45056;47.602;9.886;2022-12-07T01:39:06;92773.19;;;2.65;68.71
59289;BME280;45056;47.602;9.886;2022-12-07T01:41:37;92772.41;;;2.68;68.68
59289;BME280;45056;47.602;9.886;2022-12-07T01:44:17;92779.66;;;2.71;68.60
59289;BME280;45056;47.602;9.886;2022-12-07T01:46:49;92771.97;;;2.73;68.71
59289;BME280;45056;47.602;9.886;2022-12-07T01:49:27;92778.13;;;2.74;68.32
59289;BME280;45056;47.602;9.886;2022-12-07T01:52:09;92772.75;;;2.74;68.94
59289;BME280;45056;47.602;9.886;2022-12-07T01:54:44;92770.06;;;2.74;68.84
59289;BME280;45056;47.602;9.886;2022-12-07T01:57:17;92772.75;;;2.74;68.46
59289;BME280;45056;47.602;9.886;2022-12-07T01:59:50;92768.13;;;2.74;68.39
59289;BME280;45056;47.602;9.886;2022-12-07T02:02:25;92765.81;;;2.77;68.66
59289;BME280;45056;47.602;9.886;2022-12-07T02:05:00;92766.94;;;2.79;68.66
59289;BME280;45056;47.602;9.886;2022-12-07T02:07:31;92756.94;;;2.80;68.70
59289;BME280;45056;47.602;9.886;2022-12-07T02:10:12;92765.41;;;2.82;68.79
59289;BME280;45056;47.602;9.886;2022-12-07T02:12:48;92756.94;;;2.83;68.84
59289;BME280;45056;47.602;9.886;2022-12-07T02:15:22;92761.94;;;2.81;68.79
59289;BME280;45056;47.602;9.886;2022-12-07T02:18:04;92759.63;;;2.80;68.93
59289;BME280;45056;47.602;9.886;2022-12-07T02:20:43;92755.06;;;2.77;68.85
59289;BME280;45056;47.602;9.886;2022-12-07T02:23:41;92753.91;;;2.78;69.16
59289;BME280;45056;47.602;9.886;2022-12-07T02:26:45;92758.91;;;2.76;69.20
59289;BME280;45056;47.602;9.886;2022-12-07T02:29:37;92757.75;;;2.77;68.92
59289;BME280;45056;47.602;9.886;2022-12-07T02:32:18;92756.22;;;2.76;69.10
59289;BME280;45056;47.602;9.886;2022-12-07T02:35:01;92743.16;;;2.78;69.12
59289;BME280;45056;47.602;9.886;2022-12-07T02:37:39;92743.91;;;2.78;69.29
59289;BME280;45056;47.602;9.886;2022-12-07T02:40:18;92741.97;;;2.79;69.43
59289;BME280;45056;47.602;9.886;2022-12-07T02:42:56;92735.88;;;2.78;69.70
59289;BME280;45056;47.602;9.886;2022-12-07T02:45:34;92742.41;;;2.77;69.54
59289;BME280;45056;47.602;9.886;2022-12-07T02:48:10;92746.63;;;2.78;69.82
59289;BME280;45056;47.602;9.886;2022-12-07T02:50:45;92742.75;;;2.79;70.14
59289;BME280;45056;47.602;9.886;2022-12-07T02:53:29;92741.59;;;2.80;70.00
59289;BME280;45056;47.602;9.886;2022-12-07T02:56:06;92739.28;;;2.82;70.09
59289;BME280;45056;47.602;9.886;2022-12-07T02:58:54;92745.03;;;2.84;70.20
59289;BME280;45056;47.602;9.886;2022-12-07T03:01:42;92745.00;;;2.88;70.26
59289;BME280;45056;47.602;9.886;2022-12-07T03:04:35;92746.91;;;2.91;70.37
59289;BME280;45056;47.602;9.886;2022-12-07T03:07:21;92743.84;;;2.89;70.63
59289;BME280;45056;47.602;9.886;2022-12-07T03:10:02;92747.31;;;2.86;70.68
59289;BME280;45056;47.602;9.886;2022-12-07T03:12:44;92740.78;;;2.87;71.09
59289;BME280;45056;47.602;9.886;2022-12-07T03:15:27;92748.06;;;2.86;71.27
59289;BME280;45056;47.602;9.886;2022-12-07T03:18:03;92748.44;;;2.88;71.16
59289;BME280;45056;47.602;9.886;2022-12-07T03:20:37;92744.22;;;2.87;71.44
59289;BME280;45056;47.602;9.886;2022-12-07T03:23:10;92741.53;;;2.87;71.51
59289;BME280;45056;47.602;9.886;2022-12-07T03:25:47;92742.34;;;2.84;71.47
59289;BME280;45056;47.602;9.886;2022-12-07T03:28:22;92742.34;;;2.84;71.91
59289;BME280;45056;47.602;9.886;2022-12-07T03:31:00;92743.13;;;2.85;71.90
59289;BME280;45056;47.602;9.886;2022-12-07T03:33:42;92737.38;;;2.83;72.07
59289;BME280;45056;47.602;9.886;2022-12-07T03:36:21;92743.50;;;2.83;71.92
59289;BME280;45056;47.602;9.886;2022-12-07T03:39:00;92738.91;;;2.84;72.04
59289;BME280;45056;47.602;9.886;2022-12-07T03:41:36;92741.94;;;2.86;71.86
59289;BME280;45056;47.602;9.886;2022-12-07T03:44:07;92747.72;;;2.84;71.83
59289;BME280;45056;47.602;9.886;2022-12-07T03:46:44;92741.94;;;2.86;72.15
59289;BME280;45056;47.602;9.886;2022-12-07T03:49:25;92728.16;;;2.84;72.11
59289;BME280;45056;47.602;9.886;2022-12-07T03:52:02;92729.31;;;2.83;72.21
59289;BME280;45056;47.602;9.886;2022-12-07T03:54:45;92725.47;;;2.80;72.09
59289;BME280;45056;47.602;9.886;2022-12-07T03:57:22;92723.53;;;2.81;72.23
59289;BME280;45056;47.602;9.886;2022-12-07T03:59:55;92718.94;;;2.81;72.38
59289;BME280;45056;47.602;9.886;2022-12-07T04:02:27;92720.84;;;2.81;72.47
59289;BME280;45056;47.602;9.886;2022-12-07T04:04:58;92723.53;;;2.81;72.56
59289;BME280;45056;47.602;9.886;2022-12-07T04:07:26;92727.38;;;2.80;72.46
59289;BME280;45056;47.602;9.886;2022-12-07T04:09:54;92726.22;;;2.81;72.65
59289;BME280;45056;47.602;9.886;2022-12-07T04:12:23;92725.09;;;2.82;72.45
59289;BME280;45056;47.602;9.886;2022-12-07T04:14:51;92725.84;;;2.82;72.61
59289;BME280;45056;47.602;9.886;2022-12-07T04:17:19;92731.59;;;2.84;72.59
59289;BME280;45056;47.602;9.886;2022-12-07T04:19:48;92731.22;;;2.82;72.48
59289;BME280;45056;47.602;9.886;2022-12-07T04:22:17;92742.34;;;2.81;72.44
59289;BME280;45056;47.602;9.886;2022-12-07T04:24:45;92741.22;;;2.82;72.68
59289;BME280;45056;47.602;9.886;2022-12-07T04:27:13;92742.75;;;2.83;72.58
59289;BME280;45056;47.602;9.886;2022-12-07T04:29:43;92742.75;;;2.83;72.53
59289;BME280;45056;47.602;9.886;2022-12-07T04:32:11;92740.06;;;2.83;72.29
59289;BME280;45056;47.602;9.886;2022-12-07T04:34:40;92745.44;;;2.83;72.58
59289;BME280;45056;47.602;9.886;2022-12-07T04:37:08;92736.97;;;2.84;72.66
59289;BME280;45056;47.602;9.886;2022-12-07T04:39:38;92750.00;;;2.86;72.10
59289;BME280;45056;47.602;9.886;2022-12-07T04:42:06;92741.94;;;2.86;72.21
59289;BME280;45056;47.602;9.886;2022-12-07T04:44:34;92736.22;;;2.84;72.05
59289;BME280;45056;47.602;9.886;2022-12-07T04:47:02;92735.06;;;2.81;72.26
59289;BME280;45056;47.602;9.886;2022-12-07T04:49:30;92743.13;;;2.81;72.04
59289;BME280;45056;47.602;9.886;2022-12-07T04:51:59;92736.22;;;2.80;72.07
59289;BME280;45056;47.602;9.886;2022-12-07T04:54:27;92740.47;;;2.78;72.18
59289;BME280;45056;47.602;9.886;2022-12-07T04:56:56;92746.25;;;2.72;72.15
59289;BME280;45056;47.602;9.886;2022-12-07T04:59:25;92743.22;;;2.70;72.39
59289;BME280;45056;47.602;9.886;2022-12-07T05:01:53;92751.28;;;2.70;72.28
59289;BME280;45056;47.602;9.886;2022-12-07T05:04:21;92749.75;;;2.69;72.13
59289;BME280;45056;47.602;9.886;2022-12-07T05:06:49;92739.00;;;2.69;72.14
59289;BME280;45056;47.602;9.886;2022-12-07T05:09:17;92742.03;;;2.71;72.10
59289;BME280;45056;47.602;9.886;2022-12-07T05:11:45;92737.44;;;2.72;72.32
59289;BME280;45056;47.602;9.886;2022-12-07T05:14:17;92732.81;;;2.72;72.17
59289;BME280;45056;47.602;9.886;2022-12-07T05:16:49;92743.56;;;2.72;72.08
59289;BME280;45056;47.602;9.886;2022-12-07T05:19:20;92744.72;;;2.71;71.92
59289;BME280;45056;47.602;9.886;2022-12-07T05:21:48;92743.56;;;2.72;72.15
59289;BME280;45056;47.602;9.886;2022-12-07T05:24:16;92745.50;;;2.72;72.02
59289;BME280;45056;47.602;9.886;2022-12-07T05:26:45;92745.09;;;2.73;72.19
59289;BME280;45056;47.602;9.886;2022-12-07T05:29:16;92743.94;;;2.74;72.08
59289;BME280;45056;47.602;9.886;2022-12-07T05:31:45;92730.50;;;2.74;71.99
59289;BME280;45056;47.602;9.886;2022-12-07T05:34:13;92732.03;;;2.76;71.82
59289;BME280;45056;47.602;9.886;2022-12-07T05:36:44;92740.47;;;2.78;71.94
59289;BME280;45056;47.602;9.886;2022-12-07T05:39:12;92736.22;;;2.80;71.62
59289;BME280;45056;47.602;9.886;2022-12-07T05:41:40;92735.44;;;2.80;71.40
59289;BME280;45056;47.602;9.886;2022-12-07T05:44:27;92740.81;;;2.80;71.51
59289;BME280;45056;47.602;9.886;2022-12-07T05:46:55;92745.09;;;2.77;71.42
59289;BME280;45056;47.602;9.886;2022-12-07T05:49:24;92741.63;;;2.77;71.48
59289;BME280;45056;47.602;9.886;2022-12-07T05:51:52;92747.78;;;2.77;71.76
59289;BME280;45056;47.602;9.886;2022-12-07T05:54:20;92756.63;;;2.74;71.74
59289;BME280;45056;47.602;9.886;2022-12-07T05:56:48;92753.16;;;2.73;71.24
59289;BME280;45056;47.602;9.886;2022-12-07T05:59:17;92756.22;;;2.76;71.72
59289;BME280;45056;47.602;9.886;2022-12-07T06:01:53;92752.38;;;2.77;71.51
59289;BME280;45056;47.602;9.886;2022-12-07T06:04:24;92748.13;;;2.79;71.51
59289;BME280;45056;47.602;9.886;2022-12-07T06:06:53;92748.88;;;2.80;71.48
59289;BME280;45056;47.602;9.886;2022-12-07T06:09:24;92751.56;;;2.80;71.60
59289;BME280;45056;47.602;9.886;2022-12-07T06:11:54;92753.50;;;2.79;71.29
59289;BME280;45056;47.602;9.886;2022-12-07T06:14:40;92761.94;;;2.78;71.32
59289;BME280;45056;47.602;9.886;2022-12-07T06:17:10;92751.22;;;2.78;71.39
59289;BME280;45056;47.602;9.886;2022-12-07T06:19:40;92746.63;;;2.78;71.17
59289;BME280;45056;47.602;9.886;2022-12-07T06:22:10;92758.09;;;2.79;71.30
59289;BME280;45056;47.602;9.886;2022-12-07T06:24:39;92764.25;;;2.79;71.20
59289;BME280;45056;47.602;9.886;2022-12-07T06:27:08;92761.16;;;2.81;71.15
59289;BME280;45056;47.602;9.886;2022-12-07T06:29:36;92765.41;;;2.82;71.12
59289;BME280;45056;47.602;9.886;2022-12-07T06:32:04;92762.72;;;2.82;71.02
59289;BME280;45056;47.602;9.886;2022-12-07T06:34:34;92761.56;;;2.83;71.20
59289;BME280;45056;47.602;9.886;2022-12-07T06:37:02;92765.78;;;2.84;71.12
59289;BME280;45056;47.602;9.886;2022-12-07T06:39:31;92768.84;;;2.82;71.16
59289;BME280;45056;47.602;9.886;2022-12-07T06:41:59;92766.16;;;2.79;71.17
59289;BME280;45056;47.602;9.886;2022-12-07T06:44:27;92767.31;;;2.78;71.37
59289;BME280;45056;47.602;9.886;2022-12-07T06:46:55;92763.88;;;2.77;71.31
59289;BME280;45056;47.602;9.886;2022-12-07T06:49:23;92771.19;;;2.77;71.42
59289;BME280;45056;47.602;9.886;2022-12-07T06:51:53;92765.41;;;2.78;71.34
59289;BME280;45056;47.602;9.886;2022-12-07T06:54:21;92764.25;;;2.79;71.44
59289;BME280;45056;47.602;9.886;2022-12-07T06:56:50;92768.09;;;2.82;71.53
59289;BME280;45056;47.602;9.886;2022-12-07T06:59:18;92773.84;;;2.84;71.16
59289;BME280;45056;47.602;9.886;2022-12-07T07:01:46;92764.25;;;2.83;71.18
59289;BME280;45056;47.602;9.886;2022-12-07T07:04:14;92768.47;;;2.84;70.99
59289;BME280;45056;47.602;9.886;2022-12-07T07:06:42;92771.88;;;2.84;71.25
59289;BME280;45056;47.602;9.886;2022-12-07T07:09:12;92774.19;;;2.86;71.19
59289;BME280;45056;47.602;9.886;2022-12-07T07:11:40;92773.41;;;2.85;70.93
59289;BME280;45056;47.602;9.886;2022-12-07T07:14:08;92773.41;;;2.85;70.84
59289;BME280;45056;47.602;9.886;2022-12-07T07:16:36;92771.16;;;2.84;70.74
59289;BME280;45056;47.602;9.886;2022-12-07T07:19:04;92774.59;;;2.84;70.72
59289;BME280;45056;47.602;9.886;2022-12-07T07:21:32;92775.75;;;2.83;70.77
59289;BME280;45056;47.602;9.886;2022-12-07T07:24:01;92774.22;;;2.82;70.78
59289;BME280;45056;47.602;9.886;2022-12-07T07:26:30;92771.91;;;2.81;70.94
59289;BME280;45056;47.602;9.886;2022-12-07T07:28:58;92785.75;;;2.83;70.94
59289;BME280;45056;47.602;9.886;2022-12-07T07:31:26;92780.38;;;2.83;70.88
59289;BME280;45056;47.602;9.886;2022-12-07T07:33:54;92774.22;;;2.82;70.94
59289;BME280;45056;47.602;9.886;2022-12-07T07:36:22;92774.59;;;2.81;70.91
59289;BME280;45056;47.602;9.886;2022-12-07T07:38:51;92780.72;;;2.85;71.10
59289;BME280;45056;47.602;9.886;2022-12-07T07:41:19;92786.47;;;2.87;71.15
59289;BME280;45056;47.602;9.886;2022-12-07T07:43:48;92782.25;;;2.86;70.97
59289;BME280;45056;47.602;9.886;2022-12-07T07:46:16;92786.50;;;2.83;70.85
59289;BME280;45056;47.602;9.886;2022-12-07T07:48:44;92778.84;;;2.82;70.67
59289;BME280;45056;47.602;9.886;2022-12-07T07:51:12;92777.28;;;2.81;70.79
59289;BME280;45056;47.602;9.886;2022-12-07T07:53:40;92778.84;;;2.82;70.82
59289;BME280;45056;47.602;9.886;2022-12-07T07:56:08;92788.81;;;2.81;70.91
59289;BME280;45056;47.602;9.886;2022-12-07T07:58:37;92788.03;;;2.81;70.71
59289;BME280;45056;47.602;9.886;2022-12-07T08:01:07;92781.13;;;2.80;70.59
59289;BME280;45056;47.602;9.886;2022-12-07T08:03:36;92786.50;;;2.80;70.60
59289;BME280;45056;47.602;9.886;2022-12-07T08:06:04;92784.97;;;2.79;70.69
59289;BME280;45056;47.602;9.886;2022-12-07T08:08:33;92782.28;;;2.79;70.61
59289;BME280;45056;47.602;9.886;2022-12-07T08:11:04;92796.50;;;2.79;70.84
59289;BME280;45056;47.602;9.886;2022-12-07T08:13:33;92787.28;;;2.77;70.77
59289;BME280;45056;47.602;9.886;2022-12-07T08:16:04;92791.50;;;2.78;71.03
59289;BME280;45056;47.602;9.886;2022-12-07T08:18:36;92794.97;;;2.78;70.88
59289;BME280;45056;47.602;9.886;2022-12-07T08:21:07;92795.72;;;2.79;70.87
59289;BME280;45056;47.602;9.886;2022-12-07T08:23:37;92797.25;;;2.80;70.76
59289;BME280;45056;47.602;9.886;2022-12-07T08:26:07;92798.03;;;2.80;71.06
59289;BME280;45056;47.602;9.886;2022-12-07T08:28:37;92808.00;;;2.80;70.92
59289;BME280;45056;47.602;9.886;2022-12-07T08:31:08;92802.63;;;2.80;70.82
59289;BME280;45056;47.602;9.886;2022-12-07T08:33:41;92802.63;;;2.80;70.54
59289;BME280;45056;47.602;9.886;2022-12-07T08:36:12;92801.88;;;2.79;71.05
59289;BME280;45056;47.602;9.886;2022-12-07T08:38:41;92798.03;;;2.80;70.66
59289;BME280;45056;47.602;9.886;2022-12-07T08:41:09;92800.34;;;2.82;70.61
59289;BME280;45056;47.602;9.886;2022-12-07T08:43:37;92801.09;;;2.82;70.71
59289;BME280;45056;47.602;9.886;2022-12-07T08:46:10;92798.75;;;2.84;70.65
59289;BME280;45056;47.602;9.886;2022-12-07T08:48:48;92806.81;;;2.84;70.63
59289;BME280;45056;47.602;9.886;2022-12-07T08:51:21;92805.28;;;2.87;70.66
59289;BME280;45056;47.602;9.886;2022-12-07T08:53:52;92797.59;;;2.89;70.56
59289;BME280;45056;47.602;9.886;2022-12-07T08:56:24;92800.22;;;2.93;70.44
59289;BME280;45056;47.602;9.886;2022-12-07T08:58:53;92802.53;;;2.94;70.71
59289;BME280;45056;47.602;9.886;2022-12-07T09:01:21;92799.06;;;2.94;70.67
59289;BME280;45056;47.602;9.886;2022-12-07T09:03:50;92801.75;;;2.94;70.47
59289;BME280;45056;47.602;9.886;2022-12-07T09:06:18;92812.13;;;2.95;70.81
59289;BME280;45056;47.602;9.886;2022-12-07T09:08:50;92805.59;;;2.96;70.65
59289;BME280;45056;47.602;9.886;2022-12-07T09:11:22;92806.75;;;2.99;70.63
59289;BME280;45056;47.602;9.886;2022-12-07T09:13:50;92808.25;;;3.00;70.62
59289;BME280;45056;47.602;9.886;2022-12-07T09:16:18;92817.44;;;3.02;70.66
59289;BME280;45056;47.602;9.886;2022-12-07T09:18:46;92811.69;;;3.04;70.59
59289;BME280;45056;47.602;9.886;2022-12-07T09:21:16;92812.06;;;3.06;70.73
59289;BME280;45056;47.602;9.886;2022-12-07T09:23:44;92815.84;;;3.09;70.79
59289;BME280;45056;47.602;9.886;2022-12-07T09:26:12;92816.22;;;3.11;70.78
59289;BME280;45056;47.602;9.886;2022-12-07T09:28:41;92813.94;;;3.13;70.79
59289;BME280;45056;47.602;9.886;2022-12-07T09:31:09;92813.94;;;3.13;70.79
59289;BME280;45056;47.602;9.886;2022-12-07T09:33:37;92814.31;;;3.11;70.87
59289;BME280;45056;47.602;9.886;2022-12-07T09:36:05;92815.84;;;3.12;70.67
59289;BME280;45056;47.602;9.886;2022-12-07T09:38:36;92822.38;;;3.11;70.92
59289;BME280;45056;47.602;9.886;2022-12-07T09:41:06;92828.13;;;3.10;70.91
59289;BME280;45056;47.602;9.886;2022-12-07T09:43:39;92823.91;;;3.09;70.92
59289;BME280;45056;47.602;9.886;2022-12-07T09:46:14;92823.53;;;3.10;71.17
59289;BME280;45056;47.602;9.886;2022-12-07T09:48:45;92820.44;;;3.12;70.88
59289;BME280;45056;47.602;9.886;2022-12-07T09:51:19;92813.53;;;3.11;70.96
59289;BME280;45056;47.602;9.886;2022-12-07T09:53:53;92817.38;;;3.10;70.85
59289;BME280;45056;47.602;9.886;2022-12-07T09:56:24;92813.94;;;3.09;70.88
59289;BME280;45056;47.602;9.886;2022-12-07T09:58:59;92803.56;;;3.11;70.95
59289;BME280;45056;47.602;9.886;2022-12-07T10:01:30;92797.00;;;3.12;70.83
59289;BME280;45056;47.602;9.886;2022-12-07T10:04:09;92805.44;;;3.14;70.63
59289;BME280;45056;47.602;9.886;2022-12-07T10:06:42;92798.16;;;3.15;70.80
59289;BME280;45056;47.602;9.886;2022-12-07T10:09:15;92785.47;;;3.15;70.66
59289;BME280;45056;47.602;9.886;2022-12-07T10:11:59;92791.22;;;3.17;70.65
59289;BME280;45056;47.602;9.886;2022-12-07T10:14:34;92783.50;;;3.20;70.59
59289;BME280;45056;47.602;9.886;2022-12-07T10:17:33;92778.50;;;3.22;70.61
59289;BME280;45056;47.602;9.886;2022-12-07T10:20:23;92771.56;;;3.24;70.61
59289;BME280;45056;47.602;9.886;2022-12-07T10:23:01;92763.88;;;3.26;70.36
59289;BME280;45056;47.602;9.886;2022-12-07T10:25:35;92765.38;;;3.27;70.24
59289;BME280;45056;47.602;9.886;2022-12-07T10:28:16;92768.06;;;3.27;70.24
59289;BME280;45056;47.602;9.886;2022-12-07T10:30:52;92767.69;;;3.29;69.97
59289;BME280;45056;47.602;9.886;2022-12-07T10:33:34;92767.69;;;3.29;70.45
59289;BME280;45056;47.602;9.886;2022-12-07T10:36:20;92764.59;;;3.30;70.10
59289;BME280;45056;47.602;9.886;2022-12-07T10:38:52;92764.59;;;3.30;70.39
59289;BME280;45056;47.602;9.886;2022-12-07T10:41:27;92759.63;;;3.29;70.11
59289;BME280;45056;47.602;9.886;2022-12-07T10:43:57;92761.91;;;3.30;69.93
59289;BME280;45056;47.602;9.886;2022-12-07T10:46:49;92751.56;;;3.29;70.08
59289;BME280;45056;47.602;9.886;2022-12-07T10:53:02;92746.53;;;3.31;69.89
59289;BME280;45056;47.602;9.886;2022-12-07T10:56:02;92746.91;;;3.33;70.00
59289;BME280;45056;47.602;9.886;2022-12-07T10:59:00;92743.78;;;3.35;70.02
59289;BME280;45056;47.602;9.886;2022-12-07T11:01:51;92745.69;;;3.38;70.02
59289;BME280;45056;47.602;9.886;2022-12-07T11:04:33;92736.81;;;3.41;69.85
59289;BME280;45056;47.602;9.886;2022-12-07T11:07:13;92741.41;;;3.44;69.77
59289;BME280;45056;47.602;9.886;2022-12-07T11:10:02;92729.44;;;3.49;69.54
59289;BME280;45056;47.602;9.886;2022-12-07T11:12:50;92725.56;;;3.53;69.34
59289;BME280;45056;47.602;9.886;2022-12-07T11:15:47;92726.28;;;3.57;68.89
59289;BME280;45056;47.602;9.886;2022-12-07T11:18:31;92720.81;;;3.65;69.05
59289;BME280;45056;47.602;9.886;2022-12-07T11:21:12;92725.38;;;3.68;68.32
59289;BME280;45056;47.602;9.886;2022-12-07T11:23:53;92717.28;;;3.71;68.03
59289;BME280;45056;47.602;9.886;2022-12-07T11:26:40;92706.50;;;3.71;67.67
59289;BME280;45056;47.602;9.886;2022-12-07T11:29:32;92707.25;;;3.72;67.57
59289;BME280;45056;47.602;9.886;2022-12-07T11:32:44;92706.06;;;3.77;67.95
59289;BME280;45056;47.602;9.886;2022-12-07T11:35:30;92706.38;;;3.82;67.86
59289;BME280;45056;47.602;9.886;2022-12-07T11:38:14;92700.59;;;3.84;68.05
59289;BME280;45056;47.602;9.886;2022-12-07T11:40:47;92708.63;;;3.87;67.81
59289;BME280;45056;47.602;9.886;2022-12-07T11:43:22;92707.06;;;3.90;67.71
59289;BME280;45056;47.602;9.886;2022-12-07T11:46:02;92702.03;;;3.92;67.49
59289;BME280;45056;47.602;9.886;2022-12-07T11:48:39;92694.72;;;3.93;67.28
59289;BME280;45056;47.602;9.886;2022-12-07T11:51:13;92700.88;;;3.93;67.27
59289;BME280;45056;47.602;9.886;2022-12-07T11:53:53;92690.50;;;3.92;66.83
59289;BME280;45056;47.602;9.886;2022-12-07T11:56:27;92687.84;;;3.88;66.81
59289;BME280;45056;47.602;9.886;2022-12-07T11:59:04;92692.50;;;3.84;66.73
59289;BME280;45056;47.602;9.886;2022-12-07T12:01:51;92695.56;;;3.86;67.02
59289;BME280;45056;47.602;9.886;2022-12-07T12:04:31;92675.97;;;3.85;66.76
59289;BME280;45056;47.602;9.886;2022-12-07T12:07:23;92676.31;;;3.87;66.70
59289;BME280;45056;47.602;9.886;2022-12-07T12:09:56;92680.16;;;3.90;66.56
59289;BME280;45056;47.602;9.886;2022-12-07T12:16:04;92664.78;;;3.87;66.92
59289;BME280;45056;47.602;9.886;2022-12-07T12:19:04;92667.91;;;3.85;67.16
59289;BME280;45056;47.602;9.886;2022-12-07T12:21:48;92661.75;;;3.85;66.82
59289;BME280;45056;47.602;9.886;2022-12-07T12:24:28;92661.00;;;3.84;66.91
59289;BME280;45056;47.602;9.886;2022-12-07T12:27:06;92657.13;;;3.85;66.88
59289;BME280;45056;47.602;9.886;2022-12-07T12:29:39;92650.97;;;3.85;66.85
59289;BME280;45056;47.602;9.886;2022-12-07T12:32:17;92650.94;;;3.88;66.93
59289;BME280;45056;47.602;9.886;2022-12-07T12:35:01;92640.13;;;3.92;66.74
59289;BME280;45056;47.602;9.886;2022-12-07T12:37:50;92643.91;;;3.95;66.57
59289;BME280;45056;47.602;9.886;2022-12-07T12:40:43;92645.44;;;3.96;66.31
59289;BME280;45056;47.602;9.886;2022-12-07T12:43:40;92648.91;;;3.96;66.36
59289;BME280;45056;47.602;9.886;2022-12-07T12:46:50;92653.13;;;3.97;66.30
59289;BME280;45056;47.602;9.886;2022-12-07T12:49:42;92651.19;;;3.98;66.33
59289;BME280;45056;47.602;9.886;2022-12-07T12:52:49;92643.09;;;3.98;65.84
59289;BME280;45056;47.602;9.886;2022-12-07T12:58:48;92646.97;;;3.97;66.25
59289;BME280;45056;47.602;9.886;2022-12-07T13:01:42;92650.47;;;3.94;66.10
59289;BME280;45056;47.602;9.886;2022-12-07T13:04:40;92650.09;;;3.95;66.56
59289;BME280;45056;47.602;9.886;2022-12-07T13:07:52;92642.75;;;3.96;66.81
59289;BME280;45056;47.602;9.886;2022-12-07T13:10:38;92643.91;;;3.95;66.85
59289;BME280;45056;47.602;9.886;2022-12-07T13:13:31;92647.78;;;3.94;66.74
59289;BME280;45056;47.602;9.886;2022-12-07T13:22:47;92628.69;;;3.84;66.96
59289;BME280;45056;47.602;9.886;2022-12-07T13:25:25;92628.69;;;3.84;66.92
59289;BME280;45056;47.602;9.886;2022-12-07T13:28:02;92627.16;;;3.83;66.59
59289;BME280;45056;47.602;9.886;2022-12-07T13:30:47;92622.53;;;3.84;66.41
59289;BME280;45056;47.602;9.886;2022-12-07T13:33:34;92630.59;;;3.84;66.54
59289;BME280;45056;47.602;9.886;2022-12-07T13:36:29;92627.16;;;3.83;66.57
59289;BME280;45056;47.602;9.886;2022-12-07T13:39:19;92624.88;;;3.82;66.64
59289;BME280;45056;47.602;9.886;2022-12-07T13:41:51;92619.91;;;3.80;66.50
59289;BME280;45056;47.602;9.886;2022-12-07T13:44:24;92618.38;;;3.79;66.67
59289;BME280;45056;47.602;9.886;2022-12-07T13:47:03;92620.31;;;3.79;66.88
59289;BME280;45056;47.602;9.886;2022-12-07T13:49:46;92618.78;;;3.78;67.17
59289;BME280;45056;47.602;9.886;2022-12-07T13:52:23;92616.50;;;3.76;67.09
59289;BME280;45056;47.602;9.886;2022-12-07T13:54:57;92614.97;;;3.75;67.44
59289;BME280;45056;47.602;9.886;2022-12-07T13:57:29;92617.69;;;3.75;67.43
59289;BME280;45056;47.602;9.886;2022-12-07T14:00:01;92610.00;;;3.73;67.37
59289;BME280;45056;47.602;9.886;2022-12-07T14:02:34;92606.91;;;3.75;67.39
59289;BME280;45056;47.602;9.886;2022-12-07T14:05:10;92604.63;;;3.73;67.22
59289;BME280;45056;47.602;9.886;2022-12-07T14:07:52;92606.53;;;3.73;66.98